Time;durP1;ratioP1;P1;durP2;ratioP2;P2;SDS_P1;SDS_P2;PMS_P1;PMS_P2;Temp;Humidity;BMP_temperature;BMP_pressure;BME280_temperature;BME280_humidity;BME280_pressure;Samples;Min_cycle;Max_cycle;Signal;HPM_P1;HPM_P2
2023/10/23 00:02:40;;;;;;;3.30;2.33;;;17.10;83.00;;;;;;10949918;32;20019;-71
2023/10/23 00:08:42;;;;;;;3.55;2.62;;;17.00;83.00;;;;;;10949523;32;20053;-71
2023/10/23 00:14:44;;;;;;;3.72;3.15;;;17.10;83.00;;;;;;10949484;32;20448;-71
2023/10/23 00:20:46;;;;;;;6.62;2.58;;;17.00;83.20;;;;;;10949248;32;20042;-70
2023/10/23 00:26:48;;;;;;;3.40;2.67;;;17.00;83.20;;;;;;10929911;32;20027;-71
2023/10/23 00:32:50;;;;;;;3.15;2.85;;;16.90;83.30;;;;;;10948285;32;20393;-70
2023/10/23 00:38:52;;;;;;;6.70;3.72;;;16.90;83.30;;;;;;10947423;32;20049;-70
2023/10/23 00:44:54;;;;;;;4.65;2.75;;;16.90;83.30;;;;;;10947646;32;20027;-71
2023/10/23 00:51:01;;;;;;;2.75;2.25;;;16.80;83.30;;;;;;10946578;32;20031;-70
2023/10/23 00:57:04;;;;;;;6.25;3.37;;;16.80;83.20;;;;;;10946921;32;20035;-71
2023/10/23 01:03:07;;;;;;;6.40;3.30;;;16.80;83.30;;;;;;10945998;32;20019;-70
2023/10/23 01:09:10;;;;;;;3.65;2.60;;;16.80;83.40;;;;;;10946865;32;20027;-71
2023/10/23 01:15:12;;;;;;;3.50;2.78;;;16.80;83.40;;;;;;10933558;32;20019;-71
2023/10/23 01:21:14;;;;;;;3.50;2.75;;;16.80;83.30;;;;;;10946463;32;20011;-71
2023/10/23 01:27:16;;;;;;;6.72;3.40;;;16.80;83.20;;;;;;10945939;32;20015;-70
2023/10/23 01:33:18;;;;;;;2.58;2.12;;;16.70;83.30;;;;;;10946406;32;20023;-70
2023/10/23 01:39:22;;;;;;;3.92;3.17;;;16.50;83.30;;;;;;10945162;32;20057;-70
2023/10/23 01:45:24;;;;;;;4.97;2.92;;;16.40;83.50;;;;;;10946232;32;20045;-71
2023/10/23 01:51:27;;;;;;;3.28;2.15;;;16.40;83.50;;;;;;10944870;32;20027;-71
2023/10/23 01:57:29;;;;;;;4.10;2.95;;;16.40;83.50;;;;;;10931075;32;20020;-71
2023/10/23 02:03:31;;;;;;;5.37;3.25;;;16.40;83.50;;;;;;10944044;32;20011;-71
2023/10/23 02:09:34;;;;;;;5.10;2.53;;;16.40;83.40;;;;;;10945556;32;20014;-71
2023/10/23 02:15:36;;;;;;;5.95;3.37;;;16.40;83.40;;;;;;10944610;32;20077;-71
2023/10/23 02:21:38;;;;;;;4.28;2.78;;;16.40;83.60;;;;;;10942878;32;20333;-71
2023/10/23 02:27:40;;;;;;;3.28;2.42;;;16.30;83.50;;;;;;10943928;32;20042;-71
2023/10/23 02:33:42;;;;;;;5.93;3.37;;;16.40;83.50;;;;;;10944361;32;20027;-71
2023/10/23 02:39:45;;;;;;;2.92;2.28;;;16.30;83.50;;;;;;10944728;32;20023;-70
2023/10/23 02:45:48;;;;;;;4.37;3.05;;;16.30;83.60;;;;;;10944052;32;20046;-71
2023/10/23 02:51:50;;;;;;;4.00;2.80;;;16.20;83.60;;;;;;10942822;32;20023;-71
2023/10/23 02:57:53;;;;;;;5.32;2.78;;;16.20;83.70;;;;;;10943028;32;20045;-71
2023/10/23 03:03:55;;;;;;;3.08;2.28;;;16.20;83.60;;;;;;10943528;32;20415;-71
2023/10/23 03:09:57;;;;;;;4.00;2.92;;;16.10;83.60;;;;;;10943316;32;20027;-71
2023/10/23 03:15:59;;;;;;;4.12;3.10;;;16.20;83.70;;;;;;10942895;32;20411;-71
2023/10/23 03:22:01;;;;;;;6.18;4.05;;;16.10;83.80;;;;;;10944962;32;20340;-71
2023/10/23 03:28:04;;;;;;;2.92;2.62;;;16.10;83.70;;;;;;10937381;32;20023;-71
2023/10/23 03:34:06;;;;;;;4.75;3.05;;;16.10;83.70;;;;;;10950712;32;20081;-71
2023/10/23 03:40:10;;;;;;;4.00;3.37;;;16.00;83.60;;;;;;10949254;32;20019;-71
2023/10/23 03:46:12;;;;;;;3.00;2.12;;;15.90;83.60;;;;;;10935983;32;20369;-71
2023/10/23 03:52:14;;;;;;;4.47;2.97;;;15.90;83.70;;;;;;10948798;32;20016;-71
2023/10/23 03:58:16;;;;;;;7.43;3.45;;;15.80;83.60;;;;;;10949004;32;20043;-71
2023/10/23 04:04:18;;;;;;;3.00;2.70;;;15.70;83.60;;;;;;10949352;32;20019;-70
2023/10/23 04:10:21;;;;;;;3.08;2.50;;;15.60;83.70;;;;;;10949172;32;20030;-71
2023/10/23 04:16:23;;;;;;;4.47;2.50;;;15.70;83.70;;;;;;10934150;32;20031;-71
2023/10/23 04:22:25;;;;;;;3.00;2.70;;;15.80;83.50;;;;;;10948873;32;20420;-71
2023/10/23 04:28:27;;;;;;;2.12;1.83;;;15.90;83.30;;;;;;10948567;32;20053;-71
2023/10/23 04:34:30;;;;;;;3.15;2.42;;;16.00;83.10;;;;;;10947925;32;20344;-71
2023/10/23 04:40:32;;;;;;;2.65;2.12;;;15.90;83.20;;;;;;10947520;32;20042;-70
2023/10/23 04:46:34;;;;;;;3.65;2.65;;;15.90;83.30;;;;;;10947441;32;20047;-70
2023/10/23 04:52:36;;;;;;;3.55;2.55;;;16.00;83.30;;;;;;10946585;32;20050;-71
2023/10/23 04:58:38;;;;;;;5.78;3.50;;;16.00;83.20;;;;;;10946387;32;20388;-70
2023/10/23 05:04:40;;;;;;;3.15;2.47;;;15.80;83.40;;;;;;10946058;32;20034;-71
2023/10/23 05:10:42;;;;;;;3.33;2.80;;;15.90;83.60;;;;;;10945766;32;20027;-71
2023/10/23 05:16:45;;;;;;;2.85;2.28;;;16.00;83.50;;;;;;10945625;32;20019;-71
2023/10/23 05:22:47;;;;;;;5.30;2.90;;;16.20;83.40;;;;;;10945684;32;20415;-71
2023/10/23 05:28:53;;;;;;;6.35;3.22;;;16.30;83.10;;;;;;10945136;32;20023;-71
2023/10/23 05:34:56;;;;;;;3.72;2.50;;;16.50;82.80;;;;;;10944982;32;20081;-71
2023/10/23 05:41:02;;;;;;;2.90;2.08;;;16.60;82.60;;;;;;10929034;32;20054;-71
2023/10/23 05:47:04;;;;;;;4.95;2.87;;;16.60;82.50;;;;;;10906412;32;20027;-71
2023/10/23 05:53:07;;;;;;;4.45;3.35;;;16.60;82.50;;;;;;10906769;32;20055;-71
2023/10/23 05:59:52;;;;;;;3.35;2.55;;;16.60;82.50;;;;;;10925368;32;20042;-71
2023/10/23 06:05:57;;;;;;;4.60;2.30;;;16.70;82.50;;;;;;10943796;32;20047;-71
2023/10/23 06:12:06;;;;;;;3.00;2.60;;;16.60;82.60;;;;;;10943047;32;20041;-71
2023/10/23 06:18:09;;;;;;;6.32;3.15;;;16.70;82.50;;;;;;10918031;32;20336;-71
2023/10/23 06:24:15;;;;;;;4.05;2.70;;;16.60;82.40;;;;;;10905559;32;20038;-71
2023/10/23 06:30:19;;;;;;;2.25;2.00;;;16.70;82.50;;;;;;10908177;32;20404;-71
2023/10/23 06:36:23;;;;;;;7.45;2.65;;;16.70;82.40;;;;;;10906427;32;20439;-71
2023/10/23 06:42:26;;;;;;;3.50;2.75;;;16.80;82.50;;;;;;10905500;32;20361;-71
2023/10/23 06:48:28;;;;;;;2.83;2.17;;;16.80;82.70;;;;;;10926434;32;20310;-71
2023/10/23 06:54:30;;;;;;;4.55;2.78;;;16.90;82.60;;;;;;10979072;27;20043;-70
2023/10/23 07:00:32;;;;;;;6.93;3.42;;;16.80;82.80;;;;;;10978713;32;20041;-70
2023/10/23 07:06:34;;;;;;;3.92;2.90;;;16.50;83.10;;;;;;10978949;32;20014;-70
2023/10/23 07:12:36;;;;;;;5.22;3.15;;;16.50;83.50;;;;;;10977885;32;20065;-70
2023/10/23 07:18:39;;;;;;;1.67;1.55;;;16.60;83.70;;;;;;10950363;32;20027;-70
2023/10/23 07:24:40;;;;;;;6.20;3.05;;;16.60;83.80;;;;;;10941740;32;20010;-70
2023/10/23 07:30:42;;;;;;;4.60;2.90;;;16.50;83.90;;;;;;10942434;32;20023;-69
2023/10/23 07:36:44;;;;;;;4.18;2.20;;;16.50;83.90;;;;;;10977287;32;20026;-70
2023/10/23 07:42:46;;;;;;;2.33;1.75;;;16.50;84.00;;;;;;10977797;32;20444;-69
2023/10/23 07:48:48;;;;;;;8.35;4.25;;;16.60;84.00;;;;;;10964810;32;20046;-70
2023/10/23 07:54:59;;;;;;;4.43;2.87;;;16.60;83.80;;;;;;10958521;32;20023;-69
2023/10/23 08:01:06;;;;;;;4.47;2.47;;;16.80;84.10;;;;;;10965196;32;20014;-70
2023/10/23 08:07:08;;;;;;;5.47;3.33;;;16.80;84.20;;;;;;10965002;32;20027;-69
2023/10/23 08:13:10;;;;;;;5.40;2.53;;;17.10;84.20;;;;;;10985736;32;20011;-69
2023/10/23 08:19:12;;;;;;;3.78;2.78;;;17.20;84.30;;;;;;10983058;32;20352;-70
2023/10/23 08:25:14;;;;;;;5.45;2.85;;;17.30;84.30;;;;;;10981266;32;20037;-70
2023/10/23 08:31:17;;;;;;;3.55;2.40;;;17.50;84.50;;;;;;10984906;32;20050;-70
2023/10/23 08:37:19;;;;;;;2.83;2.22;;;17.60;84.40;;;;;;10984655;32;20404;-70
2023/10/23 08:43:22;;;;;;;2.20;1.67;;;17.60;84.60;;;;;;10984495;32;20041;-70
2023/10/23 08:49:24;;;;;;;4.03;1.62;;;17.80;85.10;;;;;;10984179;32;20280;-70
2023/10/23 08:55:29;;;;;;;6.03;2.00;;;17.80;85.00;;;;;;10984092;32;20077;-70
2023/10/23 09:01:36;;;;;;;5.78;2.37;;;17.80;84.60;;;;;;10981074;32;20034;-70
2023/10/23 09:07:39;;;;;;;6.10;3.28;;;17.80;84.90;;;;;;10984754;32;20031;-70
2023/10/23 09:13:41;;;;;;;5.30;2.55;;;17.90;84.60;;;;;;10984102;32;20037;-70
2023/10/23 09:19:43;;;;;;;3.95;2.58;;;18.00;84.70;;;;;;10982309;32;20423;-70
2023/10/23 09:25:49;;;;;;;4.43;3.08;;;18.20;84.70;;;;;;10984332;32;20336;-69
2023/10/23 09:31:52;;;;;;;4.70;2.47;;;18.20;84.60;;;;;;10979800;32;20018;-70
2023/10/23 09:37:56;;;;;;;3.70;2.30;;;18.20;84.20;;;;;;10983674;32;20010;-70
2023/10/23 09:44:00;;;;;;;8.88;2.60;;;18.30;84.60;;;;;;10982630;32;20019;-70
2023/10/23 09:50:03;;;;;;;4.50;2.60;;;18.40;84.30;;;;;;10982680;32;20057;-70
2023/10/23 09:56:07;;;;;;;1.87;1.60;;;18.50;84.00;;;;;;10983027;32;20019;-70
2023/10/23 10:02:11;;;;;;;4.40;2.20;;;18.60;84.20;;;;;;10982718;32;20057;-70
2023/10/23 10:08:19;;;;;;;4.10;2.62;;;18.80;84.00;;;;;;10977174;32;20045;-69
2023/10/23 10:14:23;;;;;;;5.97;2.70;;;18.90;83.90;;;;;;10981733;32;20011;-69
2023/10/23 10:20:27;;;;;;;2.95;2.17;;;19.00;83.10;;;;;;10982286;32;20015;-69
2023/10/23 10:26:33;;;;;;;9.00;2.25;;;19.10;83.00;;;;;;10981144;32;20014;-70
2023/10/23 10:32:35;;;;;;;3.72;1.70;;;19.30;82.80;;;;;;10981959;32;20041;-69
2023/10/23 10:38:37;;;;;;;3.55;2.08;;;19.30;82.00;;;;;;10980562;32;20065;-69
2023/10/23 10:45:10;;;;;;;6.50;2.47;;;19.40;82.00;;;;;;10980924;32;20014;-69
2023/10/23 10:51:19;;;;;;;5.57;2.15;;;19.50;81.40;;;;;;10977019;32;20018;-69
2023/10/23 10:57:21;;;;;;;2.95;1.90;;;19.70;80.50;;;;;;10980335;32;20042;-69
2023/10/23 11:03:26;;;;;;;3.85;1.90;;;19.90;80.50;;;;;;10978473;32;20405;-70
2023/10/23 11:09:28;;;;;;;5.93;1.65;;;20.00;79.70;;;;;;10978854;32;20023;-70
2023/10/23 11:15:30;;;;;;;2.70;1.83;;;20.30;79.20;;;;;;10978856;32;20015;-69
2023/10/23 11:21:32;;;;;;;6.05;1.90;;;20.30;76.50;;;;;;10978741;32;20026;-70
2023/10/23 11:27:36;;;;;;;4.95;1.75;;;20.40;76.20;;;;;;10979661;32;20018;-71
2023/10/23 11:34:07;;;;;;;3.55;1.80;;;20.60;76.30;;;;;;10976680;32;20035;-70
2023/10/23 11:40:11;;;;;;;3.12;1.48;;;20.70;74.70;;;;;;10980773;32;20376;-70
2023/10/23 11:46:13;;;;;;;2.78;1.58;;;20.80;75.20;;;;;;10985537;32;20007;-69
2023/10/23 11:52:15;;;;;;;1.87;1.20;;;20.80;73.10;;;;;;10985378;32;20049;-69
2023/10/23 11:58:29;;;;;;;5.37;1.35;;;20.70;72.00;;;;;;10959786;32;20089;-69
2023/10/23 12:04:35;;;;;;;1.52;0.95;;;20.60;71.90;;;;;;10948873;32;20011;-69
2023/10/23 12:10:38;;;;;;;4.65;1.37;;;20.60;71.00;;;;;;10948081;32;20050;-69
2023/10/23 12:16:40;;;;;;;4.55;1.98;;;20.70;71.50;;;;;;10948768;32;20377;-68
2023/10/23 12:22:44;;;;;;;5.82;1.10;;;20.80;71.40;;;;;;10941331;32;20031;-69
2023/10/23 12:29:05;;;;;;;1.52;1.23;;;20.80;71.20;;;;;;10947345;32;20031;-69
2023/10/23 12:35:09;;;;;;;2.03;0.95;;;20.80;70.90;;;;;;10948498;32;20046;-69
2023/10/23 12:41:11;;;;;;;1.35;0.90;;;20.80;71.00;;;;;;10944883;32;20041;-69
2023/10/23 12:47:14;;;;;;;4.40;1.40;;;20.80;70.90;;;;;;10946256;32;20043;-69
2023/10/23 12:53:16;;;;;;;2.97;1.05;;;20.80;70.30;;;;;;10946130;32;20026;-69
2023/10/23 12:59:18;;;;;;;1.73;1.12;;;20.80;70.40;;;;;;10946887;32;20435;-69
2023/10/23 13:05:20;;;;;;;3.28;1.35;;;20.80;69.10;;;;;;10946864;32;20019;-69
2023/10/23 13:11:23;;;;;;;2.67;1.23;;;20.70;69.60;;;;;;10947021;32;20023;-70
2023/10/23 13:17:25;;;;;;;1.75;1.10;;;20.70;69.30;;;;;;10947079;32;20015;-71
2023/10/23 13:23:27;;;;;;;0.62;0.62;;;20.80;69.40;;;;;;10945938;32;20353;-68
2023/10/23 13:29:32;;;;;;;1.27;1.05;;;20.80;69.30;;;;;;10954004;32;20023;-69
2023/10/23 13:35:34;;;;;;;1.17;0.85;;;20.80;68.90;;;;;;10982671;32;20026;-70
2023/10/23 13:41:36;;;;;;;2.03;1.25;;;20.80;68.70;;;;;;10981529;32;20018;-68
2023/10/23 13:47:38;;;;;;;0.93;0.82;;;20.80;69.40;;;;;;10983294;32;20035;-69
2023/10/23 13:53:40;;;;;;;4.15;0.93;;;20.90;69.10;;;;;;10979224;32;20037;-70
2023/10/23 13:59:42;;;;;;;2.40;1.27;;;20.90;69.40;;;;;;10978033;32;20022;-70
2023/10/23 14:05:44;;;;;;;2.70;1.10;;;21.00;69.80;;;;;;10981214;32;20018;-70
2023/10/23 14:11:46;;;;;;;0.65;0.65;;;20.90;69.80;;;;;;10978542;32;20027;-71
2023/10/23 14:17:48;;;;;;;1.58;0.60;;;20.90;70.00;;;;;;10978792;32;20038;-72
2023/10/23 14:23:50;;;;;;;5.43;1.83;;;21.00;70.30;;;;;;10979110;32;20014;-70
2023/10/23 14:29:53;;;;;;;1.65;0.75;;;21.00;70.50;;;;;;10980001;32;20022;-70
2023/10/23 14:35:56;;;;;;;2.47;1.60;;;21.00;70.60;;;;;;10978293;32;20023;-70
2023/10/23 14:41:58;;;;;;;1.77;0.93;;;21.00;70.70;;;;;;10981154;32;20077;-70
2023/10/23 14:48:00;;;;;;;3.53;1.55;;;20.90;70.70;;;;;;10978153;32;20035;-70
2023/10/23 14:56:24;;;;;;;3.10;0.95;;;20.90;71.00;;;;;;12801982;27;20302;-70
2023/10/23 15:02:26;;;;;;;2.13;1.30;;;20.80;71.50;;;;;;12749003;28;20026;-70
2023/10/23 15:08:27;;;;;;;3.15;1.25;;;20.80;71.80;;;;;;12748729;28;20027;-70
2023/10/23 15:14:29;;;;;;;2.10;1.08;;;20.80;71.90;;;;;;12748294;28;20027;-70
2023/10/23 15:20:30;;;;;;;2.45;1.40;;;20.70;72.20;;;;;;12748016;28;20028;-70
2023/10/23 15:26:32;;;;;;;1.75;0.93;;;20.60;72.30;;;;;;12746542;28;20041;-70
2023/10/23 15:32:34;;;;;;;1.88;1.23;;;20.50;72.50;;;;;;12747239;28;20044;-70
2023/10/23 15:38:38;;;;;;;1.55;1.15;;;20.50;72.90;;;;;;12729505;28;20358;-70
2023/10/23 15:44:41;;;;;;;2.58;1.20;;;20.40;73.20;;;;;;12746999;28;20343;-70
2023/10/23 15:50:44;;;;;;;6.53;1.45;;;20.40;73.40;;;;;;12745149;28;20042;-70
2023/10/23 15:56:45;;;;;;;3.42;1.48;;;20.40;73.90;;;;;;12721728;28;20027;-70
2023/10/23 16:02:47;;;;;;;1.67;1.00;;;20.30;74.20;;;;;;12688289;28;20028;-70
2023/10/23 16:08:48;;;;;;;5.80;1.92;;;20.30;74.60;;;;;;12661035;28;20032;-71
2023/10/23 16:14:50;;;;;;;2.40;1.40;;;20.20;75.40;;;;;;12660553;28;20031;-70
2023/10/23 16:20:51;;;;;;;3.95;1.95;;;20.10;75.80;;;;;;12660173;28;20041;-70
2023/10/23 16:26:53;;;;;;;6.00;1.63;;;20.00;76.20;;;;;;12658332;28;20348;-71
2023/10/23 16:32:55;;;;;;;6.57;1.85;;;20.00;76.60;;;;;;12659688;28;20032;-70
2023/10/23 16:38:56;;;;;;;2.40;1.48;;;20.00;76.70;;;;;;12659425;28;20031;-70
2023/10/23 16:45:17;;;;;;;3.92;1.58;;;20.00;76.80;;;;;;12658879;28;20028;-70
2023/10/23 16:51:19;;;;;;;3.15;1.45;;;20.00;76.70;;;;;;12658716;28;20024;-70
2023/10/23 16:57:20;;;;;;;8.52;2.25;;;20.00;76.90;;;;;;12658646;28;20039;-70
2023/10/23 17:03:24;;;;;;;2.55;1.30;;;20.00;77.00;;;;;;12658156;28;20134;-70
2023/10/23 17:09:26;;;;;;;3.60;1.48;;;19.90;77.20;;;;;;12657817;28;20039;-70
2023/10/23 17:15:28;;;;;;;1.70;1.08;;;19.90;77.30;;;;;;12655960;28;20036;-70
2023/10/23 17:21:30;;;;;;;1.95;1.67;;;20.00;77.50;;;;;;12657345;28;20028;-71
2023/10/23 17:27:31;;;;;;;3.38;1.77;;;20.00;77.70;;;;;;12655936;28;20040;-70
2023/10/23 17:33:33;;;;;;;1.23;0.80;;;19.90;77.90;;;;;;12656278;28;20349;-70
2023/10/23 17:39:35;;;;;;;4.57;1.67;;;19.90;78.00;;;;;;12657238;28;20035;-70
2023/10/23 17:45:37;;;;;;;3.55;1.80;;;19.90;78.30;;;;;;12656269;28;20102;-70
2023/10/23 17:51:39;;;;;;;3.47;1.73;;;19.90;78.30;;;;;;12654978;28;20036;-70
2023/10/23 17:57:40;;;;;;;4.03;1.95;;;19.80;78.40;;;;;;12655625;28;20032;-70
2023/10/23 18:03:42;;;;;;;1.83;1.10;;;19.90;78.40;;;;;;12655410;28;20036;-70
2023/10/23 18:09:44;;;;;;;5.75;1.88;;;19.80;78.60;;;;;;12637048;28;20043;-70
2023/10/23 18:15:46;;;;;;;1.33;1.08;;;19.80;78.80;;;;;;12654865;28;20027;-70
2023/10/23 18:21:47;;;;;;;2.97;1.52;;;19.80;78.90;;;;;;12653064;28;20028;-70
2023/10/23 18:27:49;;;;;;;1.85;1.42;;;19.80;79.20;;;;;;12652664;28;20036;-70
2023/10/23 18:33:51;;;;;;;3.53;1.90;;;19.80;79.40;;;;;;12653967;28;20032;-69
2023/10/23 18:39:53;;;;;;;2.55;1.45;;;19.80;79.30;;;;;;12653823;28;20074;-70
2023/10/23 18:45:55;;;;;;;9.95;2.17;;;19.80;79.60;;;;;;12654213;28;20035;-70
2023/10/23 18:51:57;;;;;;;4.57;2.65;;;19.80;79.80;;;;;;12653901;28;20356;-70
2023/10/23 18:57:59;;;;;;;3.33;2.00;;;19.80;80.00;;;;;;12653795;28;20035;-70
2023/10/23 19:04:02;;;;;;;2.80;2.25;;;19.70;79.90;;;;;;12653857;28;20036;-70
2023/10/23 19:10:05;;;;;;;2.58;2.10;;;19.70;79.90;;;;;;12654317;28;20024;-70
2023/10/23 19:16:08;;;;;;;5.00;2.65;;;19.70;80.00;;;;;;12653487;28;20032;-70
2023/10/23 19:22:11;;;;;;;3.05;2.13;;;19.70;80.00;;;;;;12653451;28;20340;-70
2023/10/23 19:28:13;;;;;;;4.63;2.60;;;19.70;80.10;;;;;;12653300;28;20043;-71
2023/10/23 19:34:15;;;;;;;3.72;2.15;;;19.70;80.30;;;;;;12653027;28;20032;-70
2023/10/23 19:40:38;;;;;;;5.60;2.13;;;19.70;80.40;;;;;;12657811;28;20031;-70
2023/10/23 19:46:41;;;;;;;8.63;3.28;;;19.60;80.40;;;;;;12663984;28;20032;-71
2023/10/23 19:52:44;;;;;;;4.82;2.85;;;19.50;80.80;;;;;;12693427;28;20028;-71
2023/10/23 19:58:46;;;;;;;4.38;2.70;;;19.40;81.20;;;;;;12711230;28;20027;-71
2023/10/23 20:04:49;;;;;;;5.68;3.20;;;19.30;81.50;;;;;;12694032;28;20325;-71
2023/10/23 20:10:51;;;;;;;6.57;3.75;;;19.30;81.80;;;;;;12711868;28;20034;-70
2023/10/23 20:16:52;;;;;;;8.00;4.03;;;19.30;81.70;;;;;;12711503;28;20032;-71
2023/10/23 20:22:54;;;;;;;8.63;3.45;;;19.30;81.60;;;;;;12711281;28;20028;-71
2023/10/23 20:28:56;;;;;;;8.38;5.18;;;19.30;81.50;;;;;;12711007;28;20348;-71
2023/10/23 20:34:59;;;;;;;4.80;3.45;;;19.40;81.60;;;;;;12710603;28;20462;-71
2023/10/23 20:41:03;;;;;;;4.30;3.03;;;19.30;81.90;;;;;;12709264;28;20028;-71
2023/10/23 20:47:05;;;;;;;5.78;3.35;;;19.40;82.00;;;;;;12692727;28;20031;-70
2023/10/23 20:53:07;;;;;;;4.28;3.13;;;19.30;82.10;;;;;;12708191;28;20035;-70
2023/10/23 20:59:09;;;;;;;7.88;3.58;;;19.20;82.40;;;;;;12708295;28;20035;-71
2023/10/23 21:05:11;;;;;;;3.22;2.13;;;19.30;82.60;;;;;;12708036;28;20039;-71
2023/10/23 21:11:12;;;;;;;4.93;3.72;;;19.30;82.70;;;;;;12708839;28;20035;-71
2023/10/23 21:17:15;;;;;;;5.70;3.90;;;19.30;82.90;;;;;;12708695;28;20028;-71
2023/10/23 21:23:17;;;;;;;5.45;3.50;;;19.30;82.80;;;;;;12708375;28;20035;-71
2023/10/23 21:29:23;;;;;;;5.75;3.40;;;19.30;82.80;;;;;;12708110;28;20028;-71
2023/10/23 21:35:24;;;;;;;6.05;3.72;;;19.30;82.90;;;;;;12706314;28;20039;-71
2023/10/23 21:41:46;;;;;;;6.35;5.03;;;19.20;83.20;;;;;;12707447;28;20051;-71
2023/10/23 21:47:47;;;;;;;9.40;4.65;;;19.20;83.20;;;;;;12707232;28;20016;-71
2023/10/23 21:53:49;;;;;;;4.28;3.42;;;19.20;83.30;;;;;;12688612;28;20356;-70
2023/10/23 21:59:51;;;;;;;5.60;3.95;;;19.20;83.20;;;;;;12706413;28;20024;-71
2023/10/23 22:05:53;;;;;;;7.40;4.80;;;19.20;83.20;;;;;;12687879;28;20032;-71
2023/10/23 22:11:55;;;;;;;5.90;4.05;;;19.10;83.40;;;;;;12704838;28;20035;-71
2023/10/23 22:17:57;;;;;;;6.07;4.05;;;19.00;83.60;;;;;;12705852;28;20028;-71
2023/10/23 22:23:58;;;;;;;7.07;4.47;;;19.00;83.90;;;;;;12705642;28;20320;-71
2023/10/23 22:30:04;;;;;;;4.40;3.33;;;19.00;83.90;;;;;;12702633;28;20038;-71
2023/10/23 22:36:07;;;;;;;5.75;3.45;;;19.00;83.80;;;;;;12705140;28;20424;-71
2023/10/23 22:42:09;;;;;;;4.45;3.10;;;19.00;83.90;;;;;;12703765;28;20038;-71
2023/10/23 22:48:12;;;;;;;5.65;3.00;;;19.00;84.00;;;;;;12704829;28;20031;-70
2023/10/23 22:54:14;;;;;;;2.33;1.92;;;19.00;83.90;;;;;;12680604;22;20075;-71
2023/10/23 23:00:16;;;;;;;4.82;2.92;;;19.00;84.00;;;;;;12619858;28;20039;-71
2023/10/23 23:06:19;;;;;;;3.95;2.75;;;19.10;84.00;;;;;;12653833;28;20458;-70
2023/10/23 23:12:21;;;;;;;4.63;2.42;;;19.10;83.90;;;;;;12655393;28;20043;-71
2023/10/23 23:18:23;;;;;;;3.05;1.80;;;19.00;84.00;;;;;;12663756;28;20043;-71
2023/10/23 23:24:25;;;;;;;3.97;3.03;;;19.00;84.20;;;;;;12664114;28;20027;-71
2023/10/23 23:30:27;;;;;;;5.22;3.35;;;19.00;84.20;;;;;;12645380;28;20040;-71
2023/10/23 23:36:29;;;;;;;5.15;3.35;;;19.00;84.30;;;;;;12644788;28;20432;-70
2023/10/23 23:42:30;;;;;;;6.38;3.03;;;19.00;84.30;;;;;;12662635;28;20032;-70
2023/10/23 23:48:32;;;;;;;8.50;3.42;;;19.00;84.30;;;;;;12644686;28;20039;-70
2023/10/23 23:54:34;;;;;;;3.67;2.50;;;18.90;84.40;;;;;;12661865;28;20028;-69
